sensor_id;sensor_type;location;lat;lon;timestamp;P1;durP1;ratioP1;P2;durP2;ratioP2
22007;SDS011;11168;56.976;24.168;2023-02-15T00:02:26;51.25;;;21.58;;
22007;SDS011;11168;56.976;24.168;2023-02-15T00:04:53;46.15;;;20.98;;
22007;SDS011;11168;56.976;24.168;2023-02-15T00:07:22;44.33;;;21.67;;
22007;SDS011;11168;56.976;24.168;2023-02-15T00:09:49;41.70;;;19.77;;
22007;SDS011;11168;56.976;24.168;2023-02-15T00:12:16;42.55;;;20.10;;
22007;SDS011;11168;56.976;24.168;2023-02-15T00:14:43;42.60;;;18.48;;
22007;SDS011;11168;56.976;24.168;2023-02-15T00:17:10;41.63;;;18.98;;
22007;SDS011;11168;56.976;24.168;2023-02-15T00:19:37;37.85;;;18.75;;
22007;SDS011;11168;56.976;24.168;2023-02-15T00:22:04;43.40;;;19.33;;
22007;SDS011;11168;56.976;24.168;2023-02-15T00:24:31;43.05;;;19.60;;
22007;SDS011;11168;56.976;24.168;2023-02-15T00:26:58;39.15;;;18.67;;
22007;SDS011;11168;56.976;24.168;2023-02-15T00:29:25;37.45;;;18.60;;
22007;SDS011;11168;56.976;24.168;2023-02-15T00:31:52;35.45;;;17.00;;
22007;SDS011;11168;56.976;24.168;2023-02-15T00:34:21;39.38;;;17.52;;
22007;SDS011;11168;56.976;24.168;2023-02-15T00:36:49;38.55;;;17.15;;
22007;SDS011;11168;56.976;24.168;2023-02-15T00:39:17;35.70;;;16.17;;
22007;SDS011;11168;56.976;24.168;2023-02-15T00:41:45;39.67;;;18.17;;
22007;SDS011;11168;56.976;24.168;2023-02-15T00:44:13;34.17;;;15.70;;
22007;SDS011;11168;56.976;24.168;2023-02-15T00:46:40;31.85;;;15.30;;
22007;SDS011;11168;56.976;24.168;2023-02-15T00:49:08;33.47;;;14.85;;
22007;SDS011;11168;56.976;24.168;2023-02-15T00:51:35;35.63;;;16.88;;
22007;SDS011;11168;56.976;24.168;2023-02-15T00:54:02;35.00;;;15.13;;
22007;SDS011;11168;56.976;24.168;2023-02-15T00:56:29;33.92;;;15.02;;
22007;SDS011;11168;56.976;24.168;2023-02-15T00:58:56;32.17;;;14.68;;
22007;SDS011;11168;56.976;24.168;2023-02-15T01:01:23;28.98;;;14.45;;
22007;SDS011;11168;56.976;24.168;2023-02-15T01:03:52;31.23;;;14.75;;
22007;SDS011;11168;56.976;24.168;2023-02-15T01:06:21;30.73;;;14.48;;
22007;SDS011;11168;56.976;24.168;2023-02-15T01:08:48;36.92;;;15.07;;
22007;SDS011;11168;56.976;24.168;2023-02-15T01:11:16;33.45;;;13.90;;
22007;SDS011;11168;56.976;24.168;2023-02-15T01:13:52;27.55;;;13.48;;
22007;SDS011;11168;56.976;24.168;2023-02-15T01:16:21;30.40;;;13.40;;
22007;SDS011;11168;56.976;24.168;2023-02-15T01:18:49;26.55;;;12.75;;
22007;SDS011;11168;56.976;24.168;2023-02-15T01:21:17;25.23;;;12.15;;
22007;SDS011;11168;56.976;24.168;2023-02-15T01:23:45;25.95;;;11.88;;
22007;SDS011;11168;56.976;24.168;2023-02-15T01:26:13;25.65;;;11.55;;
22007;SDS011;11168;56.976;24.168;2023-02-15T01:28:40;24.67;;;11.80;;
22007;SDS011;11168;56.976;24.168;2023-02-15T01:31:08;21.63;;;10.82;;
22007;SDS011;11168;56.976;24.168;2023-02-15T01:33:41;27.73;;;12.27;;
22007;SDS011;11168;56.976;24.168;2023-02-15T01:36:08;26.30;;;12.32;;
22007;SDS011;11168;56.976;24.168;2023-02-15T01:38:35;30.27;;;12.52;;
22007;SDS011;11168;56.976;24.168;2023-02-15T01:41:02;26.83;;;11.40;;
22007;SDS011;11168;56.976;24.168;2023-02-15T01:43:49;28.02;;;11.95;;
22007;SDS011;11168;56.976;24.168;2023-02-15T01:46:19;22.83;;;10.68;;
22007;SDS011;11168;56.976;24.168;2023-02-15T01:49:11;26.42;;;10.27;;
22007;SDS011;11168;56.976;24.168;2023-02-15T01:51:44;20.35;;;9.85;;
22007;SDS011;11168;56.976;24.168;2023-02-15T01:56:51;19.38;;;9.50;;
22007;SDS011;11168;56.976;24.168;2023-02-15T01:59:22;21.80;;;9.77;;
22007;SDS011;11168;56.976;24.168;2023-02-15T02:01:53;19.30;;;8.40;;
22007;SDS011;11168;56.976;24.168;2023-02-15T02:07:24;14.95;;;7.15;;
22007;SDS011;11168;56.976;24.168;2023-02-15T02:09:54;17.15;;;7.55;;
22007;SDS011;11168;56.976;24.168;2023-02-15T02:12:21;16.60;;;8.32;;
22007;SDS011;11168;56.976;24.168;2023-02-15T02:14:49;18.25;;;7.65;;
22007;SDS011;11168;56.976;24.168;2023-02-15T02:38:15;18.48;;;8.88;;
22007;SDS011;11168;56.976;24.168;2023-02-15T02:46:24;17.02;;;8.50;;
22007;SDS011;11168;56.976;24.168;2023-02-15T02:48:56;18.67;;;8.10;;
22007;SDS011;11168;56.976;24.168;2023-02-15T02:51:24;15.48;;;7.80;;
22007;SDS011;11168;56.976;24.168;2023-02-15T02:53:51;18.98;;;9.32;;
22007;SDS011;11168;56.976;24.168;2023-02-15T02:58:56;15.73;;;6.38;;
22007;SDS011;11168;56.976;24.168;2023-02-15T03:04:35;14.70;;;5.55;;
22007;SDS011;11168;56.976;24.168;2023-02-15T03:07:09;17.27;;;6.38;;
22007;SDS011;11168;56.976;24.168;2023-02-15T03:09:45;12.27;;;6.05;;
22007;SDS011;11168;56.976;24.168;2023-02-15T03:12:18;13.45;;;5.50;;
22007;SDS011;11168;56.976;24.168;2023-02-15T03:14:56;15.43;;;4.90;;
22007;SDS011;11168;56.976;24.168;2023-02-15T03:17:34;10.05;;;4.55;;
22007;SDS011;11168;56.976;24.168;2023-02-15T03:20:06;13.20;;;5.38;;
22007;SDS011;11168;56.976;24.168;2023-02-15T03:22:45;17.25;;;5.50;;
22007;SDS011;11168;56.976;24.168;2023-02-15T03:25:22;17.02;;;5.60;;
22007;SDS011;11168;56.976;24.168;2023-02-15T03:28:07;14.20;;;6.25;;
22007;SDS011;11168;56.976;24.168;2023-02-15T03:30:39;11.75;;;5.20;;
22007;SDS011;11168;56.976;24.168;2023-02-15T03:33:12;12.32;;;6.47;;
22007;SDS011;11168;56.976;24.168;2023-02-15T03:35:43;15.00;;;6.35;;
22007;SDS011;11168;56.976;24.168;2023-02-15T03:38:17;18.55;;;7.50;;
22007;SDS011;11168;56.976;24.168;2023-02-15T03:40:51;15.93;;;7.80;;
22007;SDS011;11168;56.976;24.168;2023-02-15T03:46:20;21.70;;;9.57;;
22007;SDS011;11168;56.976;24.168;2023-02-15T03:52:02;19.70;;;9.43;;
22007;SDS011;11168;56.976;24.168;2023-02-15T03:54:31;18.15;;;9.32;;
22007;SDS011;11168;56.976;24.168;2023-02-15T03:57:13;22.13;;;9.68;;
22007;SDS011;11168;56.976;24.168;2023-02-15T04:00:24;17.77;;;8.23;;
22007;SDS011;11168;56.976;24.168;2023-02-15T04:05:57;19.25;;;7.10;;
22007;SDS011;11168;56.976;24.168;2023-02-15T04:08:24;15.50;;;6.63;;
22007;SDS011;11168;56.976;24.168;2023-02-15T04:11:11;15.10;;;6.88;;
22007;SDS011;11168;56.976;24.168;2023-02-15T04:13:38;14.27;;;6.82;;
22007;SDS011;11168;56.976;24.168;2023-02-15T04:16:05;19.10;;;6.63;;
22007;SDS011;11168;56.976;24.168;2023-02-15T04:18:34;16.20;;;6.75;;
22007;SDS011;11168;56.976;24.168;2023-02-15T04:21:22;15.35;;;7.22;;
22007;SDS011;11168;56.976;24.168;2023-02-15T04:24:09;19.42;;;8.20;;
22007;SDS011;11168;56.976;24.168;2023-02-15T04:26:55;18.35;;;7.88;;
22007;SDS011;11168;56.976;24.168;2023-02-15T04:29:22;18.17;;;7.65;;
22007;SDS011;11168;56.976;24.168;2023-02-15T04:31:51;19.25;;;8.07;;
22007;SDS011;11168;56.976;24.168;2023-02-15T04:34:19;20.52;;;8.82;;
22007;SDS011;11168;56.976;24.168;2023-02-15T04:36:48;18.10;;;8.32;;
22007;SDS011;11168;56.976;24.168;2023-02-15T04:39:16;15.82;;;7.93;;
22007;SDS011;11168;56.976;24.168;2023-02-15T04:41:44;17.95;;;8.02;;
22007;SDS011;11168;56.976;24.168;2023-02-15T04:44:12;17.02;;;7.65;;
22007;SDS011;11168;56.976;24.168;2023-02-15T04:46:39;15.32;;;7.22;;
22007;SDS011;11168;56.976;24.168;2023-02-15T04:49:06;24.83;;;7.93;;
22007;SDS011;11168;56.976;24.168;2023-02-15T04:51:34;13.93;;;6.38;;
22007;SDS011;11168;56.976;24.168;2023-02-15T04:54:01;16.48;;;7.32;;
22007;SDS011;11168;56.976;24.168;2023-02-15T04:56:28;17.48;;;7.18;;
22007;SDS011;11168;56.976;24.168;2023-02-15T04:58:56;18.30;;;7.50;;
22007;SDS011;11168;56.976;24.168;2023-02-15T05:01:23;18.58;;;7.60;;
22007;SDS011;11168;56.976;24.168;2023-02-15T05:03:50;16.05;;;6.78;;
22007;SDS011;11168;56.976;24.168;2023-02-15T05:06:17;15.95;;;7.15;;
22007;SDS011;11168;56.976;24.168;2023-02-15T05:08:44;21.17;;;8.18;;
22007;SDS011;11168;56.976;24.168;2023-02-15T05:11:11;17.52;;;7.78;;
22007;SDS011;11168;56.976;24.168;2023-02-15T05:13:38;18.67;;;9.02;;
22007;SDS011;11168;56.976;24.168;2023-02-15T05:16:05;23.55;;;10.00;;
22007;SDS011;11168;56.976;24.168;2023-02-15T05:18:32;20.17;;;8.60;;
22007;SDS011;11168;56.976;24.168;2023-02-15T05:20:59;21.15;;;10.07;;
22007;SDS011;11168;56.976;24.168;2023-02-15T05:23:26;25.77;;;11.15;;
22007;SDS011;11168;56.976;24.168;2023-02-15T05:25:52;23.67;;;10.60;;
22007;SDS011;11168;56.976;24.168;2023-02-15T05:28:38;24.52;;;10.60;;
22007;SDS011;11168;56.976;24.168;2023-02-15T05:31:15;21.02;;;10.20;;
22007;SDS011;11168;56.976;24.168;2023-02-15T05:33:45;23.45;;;10.90;;
22007;SDS011;11168;56.976;24.168;2023-02-15T05:36:12;24.23;;;11.23;;
22007;SDS011;11168;56.976;24.168;2023-02-15T05:38:39;22.92;;;10.77;;
22007;SDS011;11168;56.976;24.168;2023-02-15T05:41:06;27.63;;;12.68;;
22007;SDS011;11168;56.976;24.168;2023-02-15T05:43:34;31.88;;;15.77;;
22007;SDS011;11168;56.976;24.168;2023-02-15T05:46:02;35.63;;;14.82;;
22007;SDS011;11168;56.976;24.168;2023-02-15T05:48:30;36.95;;;16.33;;
22007;SDS011;11168;56.976;24.168;2023-02-15T05:51:02;31.20;;;15.60;;
22007;SDS011;11168;56.976;24.168;2023-02-15T05:53:31;34.80;;;16.52;;
22007;SDS011;11168;56.976;24.168;2023-02-15T05:56:00;37.03;;;19.38;;
22007;SDS011;11168;56.976;24.168;2023-02-15T05:58:30;40.75;;;18.23;;
22007;SDS011;11168;56.976;24.168;2023-02-15T06:01:08;35.20;;;16.10;;
22007;SDS011;11168;56.976;24.168;2023-02-15T06:03:36;36.83;;;16.55;;
22007;SDS011;11168;56.976;24.168;2023-02-15T06:06:03;34.53;;;16.52;;
22007;SDS011;11168;56.976;24.168;2023-02-15T06:08:31;32.83;;;16.30;;
22007;SDS011;11168;56.976;24.168;2023-02-15T06:11:01;38.78;;;16.88;;
22007;SDS011;11168;56.976;24.168;2023-02-15T06:13:29;39.63;;;17.00;;
22007;SDS011;11168;56.976;24.168;2023-02-15T06:15:56;33.65;;;17.83;;
22007;SDS011;11168;56.976;24.168;2023-02-15T06:18:23;37.78;;;18.20;;
22007;SDS011;11168;56.976;24.168;2023-02-15T06:20:50;39.30;;;18.42;;
22007;SDS011;11168;56.976;24.168;2023-02-15T06:23:17;40.35;;;19.65;;
22007;SDS011;11168;56.976;24.168;2023-02-15T06:25:46;50.17;;;21.63;;
22007;SDS011;11168;56.976;24.168;2023-02-15T06:28:13;44.90;;;22.80;;
22007;SDS011;11168;56.976;24.168;2023-02-15T06:30:40;47.80;;;21.40;;
22007;SDS011;11168;56.976;24.168;2023-02-15T06:33:07;46.10;;;21.42;;
22007;SDS011;11168;56.976;24.168;2023-02-15T06:35:34;45.05;;;21.83;;
22007;SDS011;11168;56.976;24.168;2023-02-15T06:38:01;52.05;;;22.73;;
22007;SDS011;11168;56.976;24.168;2023-02-15T06:40:28;50.03;;;23.77;;
22007;SDS011;11168;56.976;24.168;2023-02-15T06:42:54;46.17;;;21.90;;
22007;SDS011;11168;56.976;24.168;2023-02-15T06:45:21;39.80;;;19.55;;
22007;SDS011;11168;56.976;24.168;2023-02-15T06:47:48;38.53;;;17.88;;
22007;SDS011;11168;56.976;24.168;2023-02-15T06:50:16;39.22;;;17.38;;
22007;SDS011;11168;56.976;24.168;2023-02-15T06:52:43;29.42;;;13.70;;
22007;SDS011;11168;56.976;24.168;2023-02-15T06:55:09;22.10;;;11.35;;
22007;SDS011;11168;56.976;24.168;2023-02-15T06:57:36;24.88;;;11.30;;
22007;SDS011;11168;56.976;24.168;2023-02-15T07:00:03;24.17;;;10.75;;
22007;SDS011;11168;56.976;24.168;2023-02-15T07:02:32;22.00;;;10.38;;
22007;SDS011;11168;56.976;24.168;2023-02-15T07:04:59;22.75;;;10.70;;
22007;SDS011;11168;56.976;24.168;2023-02-15T07:07:26;18.17;;;10.07;;
22007;SDS011;11168;56.976;24.168;2023-02-15T07:09:53;22.38;;;10.85;;
22007;SDS011;11168;56.976;24.168;2023-02-15T07:12:20;24.80;;;10.15;;
22007;SDS011;11168;56.976;24.168;2023-02-15T07:15:06;21.20;;;9.77;;
22007;SDS011;11168;56.976;24.168;2023-02-15T07:17:36;20.00;;;10.55;;
22007;SDS011;11168;56.976;24.168;2023-02-15T07:20:04;19.35;;;9.77;;
22007;SDS011;11168;56.976;24.168;2023-02-15T07:22:34;23.88;;;10.43;;
22007;SDS011;11168;56.976;24.168;2023-02-15T07:25:04;21.85;;;10.40;;
22007;SDS011;11168;56.976;24.168;2023-02-15T07:27:33;21.67;;;10.73;;
22007;SDS011;11168;56.976;24.168;2023-02-15T07:30:00;22.95;;;11.13;;
22007;SDS011;11168;56.976;24.168;2023-02-15T07:32:29;25.38;;;12.23;;
22007;SDS011;11168;56.976;24.168;2023-02-15T07:34:57;30.73;;;14.60;;
22007;SDS011;11168;56.976;24.168;2023-02-15T07:37:25;31.48;;;15.10;;
22007;SDS011;11168;56.976;24.168;2023-02-15T07:39:52;31.08;;;14.00;;
22007;SDS011;11168;56.976;24.168;2023-02-15T07:42:19;26.65;;;12.35;;
22007;SDS011;11168;56.976;24.168;2023-02-15T07:44:47;28.58;;;12.63;;
22007;SDS011;11168;56.976;24.168;2023-02-15T07:47:14;23.88;;;11.63;;
22007;SDS011;11168;56.976;24.168;2023-02-15T07:49:41;22.38;;;11.27;;
22007;SDS011;11168;56.976;24.168;2023-02-15T07:52:08;24.80;;;12.45;;
22007;SDS011;11168;56.976;24.168;2023-02-15T07:54:35;24.05;;;11.35;;
22007;SDS011;11168;56.976;24.168;2023-02-15T07:57:02;27.48;;;12.20;;
22007;SDS011;11168;56.976;24.168;2023-02-15T07:59:29;32.13;;;13.18;;
22007;SDS011;11168;56.976;24.168;2023-02-15T08:01:56;28.60;;;12.23;;
22007;SDS011;11168;56.976;24.168;2023-02-15T08:04:23;22.95;;;11.43;;
22007;SDS011;11168;56.976;24.168;2023-02-15T08:06:53;25.88;;;11.95;;
22007;SDS011;11168;56.976;24.168;2023-02-15T08:09:21;27.40;;;13.35;;
22007;SDS011;11168;56.976;24.168;2023-02-15T08:11:48;28.30;;;13.38;;
22007;SDS011;11168;56.976;24.168;2023-02-15T08:14:16;28.52;;;13.27;;
22007;SDS011;11168;56.976;24.168;2023-02-15T08:16:45;28.20;;;12.88;;
22007;SDS011;11168;56.976;24.168;2023-02-15T08:19:18;25.77;;;11.48;;
22007;SDS011;11168;56.976;24.168;2023-02-15T08:21:46;23.35;;;12.13;;
22007;SDS011;11168;56.976;24.168;2023-02-15T08:24:21;23.33;;;11.40;;
22007;SDS011;11168;56.976;24.168;2023-02-15T08:26:49;25.63;;;11.52;;
22007;SDS011;11168;56.976;24.168;2023-02-15T08:29:18;23.10;;;12.52;;
22007;SDS011;11168;56.976;24.168;2023-02-15T08:31:48;24.95;;;13.15;;
22007;SDS011;11168;56.976;24.168;2023-02-15T08:34:19;29.15;;;13.07;;
22007;SDS011;11168;56.976;24.168;2023-02-15T08:36:47;25.20;;;12.23;;
22007;SDS011;11168;56.976;24.168;2023-02-15T08:39:14;28.95;;;13.35;;
22007;SDS011;11168;56.976;24.168;2023-02-15T08:41:42;25.45;;;13.80;;
22007;SDS011;11168;56.976;24.168;2023-02-15T08:44:11;26.95;;;13.00;;
22007;SDS011;11168;56.976;24.168;2023-02-15T08:46:39;27.83;;;12.77;;
22007;SDS011;11168;56.976;24.168;2023-02-15T08:49:08;32.22;;;13.90;;
22007;SDS011;11168;56.976;24.168;2023-02-15T08:51:37;29.60;;;12.98;;
22007;SDS011;11168;56.976;24.168;2023-02-15T08:54:08;55.88;;;12.15;;
22007;SDS011;11168;56.976;24.168;2023-02-15T08:56:37;39.53;;;12.10;;
22007;SDS011;11168;56.976;24.168;2023-02-15T08:59:06;38.30;;;11.95;;
22007;SDS011;11168;56.976;24.168;2023-02-15T09:01:37;30.75;;;11.45;;
22007;SDS011;11168;56.976;24.168;2023-02-15T09:04:05;26.67;;;11.38;;
22007;SDS011;11168;56.976;24.168;2023-02-15T09:06:37;25.77;;;11.80;;
22007;SDS011;11168;56.976;24.168;2023-02-15T09:09:04;33.10;;;12.57;;
22007;SDS011;11168;56.976;24.168;2023-02-15T09:11:36;35.92;;;12.57;;
22007;SDS011;11168;56.976;24.168;2023-02-15T09:14:06;24.20;;;12.23;;
22007;SDS011;11168;56.976;24.168;2023-02-15T09:16:40;29.10;;;12.50;;
22007;SDS011;11168;56.976;24.168;2023-02-15T09:19:11;25.00;;;11.60;;
22007;SDS011;11168;56.976;24.168;2023-02-15T09:21:38;25.08;;;11.82;;
22007;SDS011;11168;56.976;24.168;2023-02-15T09:24:06;37.10;;;11.38;;
22007;SDS011;11168;56.976;24.168;2023-02-15T09:26:36;26.42;;;11.65;;
22007;SDS011;11168;56.976;24.168;2023-02-15T09:29:06;24.23;;;11.95;;
22007;SDS011;11168;56.976;24.168;2023-02-15T09:31:53;27.80;;;13.27;;
22007;SDS011;11168;56.976;24.168;2023-02-15T09:34:21;27.90;;;13.40;;
22007;SDS011;11168;56.976;24.168;2023-02-15T09:36:48;38.83;;;13.82;;
22007;SDS011;11168;56.976;24.168;2023-02-15T09:39:20;26.75;;;11.55;;
22007;SDS011;11168;56.976;24.168;2023-02-15T09:52:49;24.83;;;12.57;;
22007;SDS011;11168;56.976;24.168;2023-02-15T09:58:21;28.30;;;13.38;;
22007;SDS011;11168;56.976;24.168;2023-02-15T10:01:11;34.22;;;14.23;;
22007;SDS011;11168;56.976;24.168;2023-02-15T10:15:23;20.98;;;12.57;;
22007;SDS011;11168;56.976;24.168;2023-02-15T10:18:39;42.67;;;17.85;;
22007;SDS011;11168;56.976;24.168;2023-02-15T10:24:10;52.85;;;22.88;;
22007;SDS011;11168;56.976;24.168;2023-02-15T10:27:19;43.20;;;19.73;;
22007;SDS011;11168;56.976;24.168;2023-02-15T10:29:54;37.40;;;17.80;;
22007;SDS011;11168;56.976;24.168;2023-02-15T10:35:52;18.23;;;8.57;;
22007;SDS011;11168;56.976;24.168;2023-02-15T10:38:42;16.23;;;8.75;;
22007;SDS011;11168;56.976;24.168;2023-02-15T10:44:22;18.55;;;9.82;;
22007;SDS011;11168;56.976;24.168;2023-02-15T11:00:27;16.15;;;8.75;;
22007;SDS011;11168;56.976;24.168;2023-02-15T11:03:04;15.98;;;8.63;;
22007;SDS011;11168;56.976;24.168;2023-02-15T11:06:02;22.00;;;9.65;;
22007;SDS011;11168;56.976;24.168;2023-02-15T11:08:34;15.80;;;9.15;;
22007;SDS011;11168;56.976;24.168;2023-02-15T11:11:06;21.90;;;9.98;;
22007;SDS011;11168;56.976;24.168;2023-02-15T11:13:43;34.15;;;14.10;;
22007;SDS011;11168;56.976;24.168;2023-02-15T11:16:16;28.38;;;13.85;;
22007;SDS011;11168;56.976;24.168;2023-02-15T11:19:06;21.30;;;11.13;;
22007;SDS011;11168;56.976;24.168;2023-02-15T11:21:43;20.48;;;10.57;;
22007;SDS011;11168;56.976;24.168;2023-02-15T11:26:54;14.43;;;8.80;;
22007;SDS011;11168;56.976;24.168;2023-02-15T11:32:17;20.42;;;10.98;;
22007;SDS011;11168;56.976;24.168;2023-02-15T11:37:27;20.10;;;11.18;;
22007;SDS011;11168;56.976;24.168;2023-02-15T11:40:28;20.90;;;10.88;;
22007;SDS011;11168;56.976;24.168;2023-02-15T11:43:02;20.58;;;10.63;;
22007;SDS011;11168;56.976;24.168;2023-02-15T11:45:34;13.95;;;8.32;;
22007;SDS011;11168;56.976;24.168;2023-02-15T11:48:01;14.27;;;8.40;;
22007;SDS011;11168;56.976;24.168;2023-02-15T11:50:36;13.98;;;8.90;;
22007;SDS011;11168;56.976;24.168;2023-02-15T11:53:09;16.42;;;9.55;;
22007;SDS011;11168;56.976;24.168;2023-02-15T11:55:42;14.63;;;8.00;;
22007;SDS011;11168;56.976;24.168;2023-02-15T12:00:41;11.98;;;7.35;;
22007;SDS011;11168;56.976;24.168;2023-02-15T12:06:05;10.95;;;7.00;;
22007;SDS011;11168;56.976;24.168;2023-02-15T12:08:59;12.38;;;6.35;;
22007;SDS011;11168;56.976;24.168;2023-02-15T12:11:29;9.77;;;5.78;;
22007;SDS011;11168;56.976;24.168;2023-02-15T12:14:07;8.98;;;5.13;;
22007;SDS011;11168;56.976;24.168;2023-02-15T12:21:57;6.05;;;4.25;;
22007;SDS011;11168;56.976;24.168;2023-02-15T12:24:34;7.22;;;4.88;;
22007;SDS011;11168;56.976;24.168;2023-02-15T12:27:14;7.97;;;4.90;;
22007;SDS011;11168;56.976;24.168;2023-02-15T12:29:48;11.57;;;5.90;;
22007;SDS011;11168;56.976;24.168;2023-02-15T12:32:34;7.60;;;5.07;;
22007;SDS011;11168;56.976;24.168;2023-02-15T12:35:13;7.40;;;4.95;;
22007;SDS011;11168;56.976;24.168;2023-02-15T12:37:52;8.32;;;5.03;;
22007;SDS011;11168;56.976;24.168;2023-02-15T12:40:42;11.52;;;5.97;;
22007;SDS011;11168;56.976;24.168;2023-02-15T12:43:31;8.20;;;5.32;;
22007;SDS011;11168;56.976;24.168;2023-02-15T12:48:46;9.20;;;5.28;;
22007;SDS011;11168;56.976;24.168;2023-02-15T12:51:17;10.93;;;6.68;;
22007;SDS011;11168;56.976;24.168;2023-02-15T12:53:44;13.30;;;7.75;;
22007;SDS011;11168;56.976;24.168;2023-02-15T12:56:11;17.50;;;9.38;;
22007;SDS011;11168;56.976;24.168;2023-02-15T12:58:39;18.00;;;11.23;;
22007;SDS011;11168;56.976;24.168;2023-02-15T13:03:58;21.40;;;11.93;;
22007;SDS011;11168;56.976;24.168;2023-02-15T13:06:28;23.38;;;12.20;;
22007;SDS011;11168;56.976;24.168;2023-02-15T13:09:05;22.33;;;12.15;;
22007;SDS011;11168;56.976;24.168;2023-02-15T13:11:41;25.88;;;12.95;;
22007;SDS011;11168;56.976;24.168;2023-02-15T13:14:28;24.38;;;13.27;;
22007;SDS011;11168;56.976;24.168;2023-02-15T13:17:00;24.23;;;13.13;;
22007;SDS011;11168;56.976;24.168;2023-02-15T13:22:02;22.83;;;12.25;;
22007;SDS011;11168;56.976;24.168;2023-02-15T13:24:39;16.20;;;9.57;;
22007;SDS011;11168;56.976;24.168;2023-02-15T13:27:13;20.20;;;10.15;;
22007;SDS011;11168;56.976;24.168;2023-02-15T13:29:46;19.45;;;9.55;;
22007;SDS011;11168;56.976;24.168;2023-02-15T13:32:26;16.30;;;9.40;;
22007;SDS011;11168;56.976;24.168;2023-02-15T13:35:00;19.10;;;10.48;;
22007;SDS011;11168;56.976;24.168;2023-02-15T13:37:44;17.55;;;10.48;;
22007;SDS011;11168;56.976;24.168;2023-02-15T13:42:59;20.98;;;11.10;;
22007;SDS011;11168;56.976;24.168;2023-02-15T14:05:01;20.40;;;10.57;;
22007;SDS011;11168;56.976;24.168;2023-02-15T14:19:10;17.17;;;9.57;;
22007;SDS011;11168;56.976;24.168;2023-02-15T14:21:54;18.33;;;9.55;;
22007;SDS011;11168;56.976;24.168;2023-02-15T14:27:04;23.67;;;11.25;;
22007;SDS011;11168;56.976;24.168;2023-02-15T14:35:17;26.30;;;12.43;;
22007;SDS011;11168;56.976;24.168;2023-02-15T14:37:48;23.92;;;12.98;;
22007;SDS011;11168;56.976;24.168;2023-02-15T14:40:31;23.13;;;12.75;;
22007;SDS011;11168;56.976;24.168;2023-02-15T14:43:31;27.10;;;12.35;;
22007;SDS011;11168;56.976;24.168;2023-02-15T14:48:55;20.95;;;12.15;;
22007;SDS011;11168;56.976;24.168;2023-02-15T15:02:20;24.33;;;12.38;;
22007;SDS011;11168;56.976;24.168;2023-02-15T15:04:58;21.40;;;12.18;;
22007;SDS011;11168;56.976;24.168;2023-02-15T15:07:46;25.90;;;12.88;;
22007;SDS011;11168;56.976;24.168;2023-02-15T15:12:47;18.40;;;10.13;;
22007;SDS011;11168;56.976;24.168;2023-02-15T15:15:32;21.13;;;10.93;;
22007;SDS011;11168;56.976;24.168;2023-02-15T15:18:02;21.42;;;11.50;;
22007;SDS011;11168;56.976;24.168;2023-02-15T15:20:37;18.27;;;10.85;;
22007;SDS011;11168;56.976;24.168;2023-02-15T15:42:58;25.98;;;13.95;;
22007;SDS011;11168;56.976;24.168;2023-02-15T15:48:43;26.23;;;14.02;;
22007;SDS011;11168;56.976;24.168;2023-02-15T15:51:13;26.35;;;14.50;;
22007;SDS011;11168;56.976;24.168;2023-02-15T15:53:46;27.17;;;15.20;;
22007;SDS011;11168;56.976;24.168;2023-02-15T15:56:19;28.05;;;15.55;;
22007;SDS011;11168;56.976;24.168;2023-02-15T15:58:50;26.05;;;13.98;;
22007;SDS011;11168;56.976;24.168;2023-02-15T16:01:27;27.77;;;14.07;;
22007;SDS011;11168;56.976;24.168;2023-02-15T16:03:56;24.02;;;13.40;;
22007;SDS011;11168;56.976;24.168;2023-02-15T16:06:33;27.80;;;13.93;;
22007;SDS011;11168;56.976;24.168;2023-02-15T16:11:58;25.40;;;13.05;;
22007;SDS011;11168;56.976;24.168;2023-02-15T16:14:31;22.55;;;12.70;;
22007;SDS011;11168;56.976;24.168;2023-02-15T16:17:25;28.30;;;14.18;;
22007;SDS011;11168;56.976;24.168;2023-02-15T16:19:52;23.95;;;12.88;;
22007;SDS011;11168;56.976;24.168;2023-02-15T16:22:24;24.88;;;13.05;;
22007;SDS011;11168;56.976;24.168;2023-02-15T16:27:41;22.15;;;12.00;;
22007;SDS011;11168;56.976;24.168;2023-02-15T16:35:30;25.80;;;12.48;;
22007;SDS011;11168;56.976;24.168;2023-02-15T16:37:58;23.73;;;12.30;;
22007;SDS011;11168;56.976;24.168;2023-02-15T16:40:27;31.30;;;16.30;;
22007;SDS011;11168;56.976;24.168;2023-02-15T16:43:01;29.10;;;14.93;;
22007;SDS011;11168;56.976;24.168;2023-02-15T16:45:32;26.02;;;13.98;;
22007;SDS011;11168;56.976;24.168;2023-02-15T16:48:05;27.63;;;13.95;;
22007;SDS011;11168;56.976;24.168;2023-02-15T16:50:47;28.55;;;14.27;;
22007;SDS011;11168;56.976;24.168;2023-02-15T16:53:18;26.30;;;15.32;;
22007;SDS011;11168;56.976;24.168;2023-02-15T16:55:55;30.02;;;14.32;;
22007;SDS011;11168;56.976;24.168;2023-02-15T16:58:30;30.83;;;15.32;;
22007;SDS011;11168;56.976;24.168;2023-02-15T17:01:06;29.85;;;14.70;;
22007;SDS011;11168;56.976;24.168;2023-02-15T17:03:35;29.90;;;15.88;;
22007;SDS011;11168;56.976;24.168;2023-02-15T17:06:03;29.70;;;14.65;;
22007;SDS011;11168;56.976;24.168;2023-02-15T17:08:43;28.25;;;14.18;;
22007;SDS011;11168;56.976;24.168;2023-02-15T17:11:15;29.90;;;14.03;;
22007;SDS011;11168;56.976;24.168;2023-02-15T17:16:35;31.77;;;14.82;;
22007;SDS011;11168;56.976;24.168;2023-02-15T17:19:13;33.38;;;15.07;;
22007;SDS011;11168;56.976;24.168;2023-02-15T17:21:46;29.00;;;15.40;;
22007;SDS011;11168;56.976;24.168;2023-02-15T17:24:28;29.48;;;14.00;;
22007;SDS011;11168;56.976;24.168;2023-02-15T17:27:03;33.75;;;16.02;;
22007;SDS011;11168;56.976;24.168;2023-02-15T17:29:39;34.88;;;16.60;;
22007;SDS011;11168;56.976;24.168;2023-02-15T17:32:17;35.10;;;16.38;;
22007;SDS011;11168;56.976;24.168;2023-02-15T17:37:24;34.87;;;14.87;;
22007;SDS011;11168;56.976;24.168;2023-02-15T17:39:57;34.92;;;16.50;;
22007;SDS011;11168;56.976;24.168;2023-02-15T17:42:25;30.42;;;15.30;;
22007;SDS011;11168;56.976;24.168;2023-02-15T17:44:52;34.05;;;16.15;;
22007;SDS011;11168;56.976;24.168;2023-02-15T17:47:20;30.58;;;15.35;;
22007;SDS011;11168;56.976;24.168;2023-02-15T17:49:50;35.10;;;17.10;;
22007;SDS011;11168;56.976;24.168;2023-02-15T17:52:19;34.92;;;16.17;;
22007;SDS011;11168;56.976;24.168;2023-02-15T17:54:46;32.58;;;15.80;;
22007;SDS011;11168;56.976;24.168;2023-02-15T17:57:32;32.80;;;16.67;;
22007;SDS011;11168;56.976;24.168;2023-02-15T18:00:07;30.38;;;15.77;;
22007;SDS011;11168;56.976;24.168;2023-02-15T18:02:58;30.20;;;14.90;;
22007;SDS011;11168;56.976;24.168;2023-02-15T18:05:43;29.42;;;14.85;;
22007;SDS011;11168;56.976;24.168;2023-02-15T18:08:29;30.40;;;14.48;;
22007;SDS011;11168;56.976;24.168;2023-02-15T18:11:14;28.67;;;14.95;;
22007;SDS011;11168;56.976;24.168;2023-02-15T18:14:00;29.92;;;13.95;;
22007;SDS011;11168;56.976;24.168;2023-02-15T18:16:33;28.60;;;14.98;;
22007;SDS011;11168;56.976;24.168;2023-02-15T18:19:19;26.98;;;14.50;;
22007;SDS011;11168;56.976;24.168;2023-02-15T18:21:48;29.73;;;13.90;;
22007;SDS011;11168;56.976;24.168;2023-02-15T18:24:19;30.83;;;14.90;;